createdAt,value
2023-11-07T00:00:05.757Z,15.73
2023-11-07T00:00:28.823Z,18.33
2023-11-07T00:00:51.568Z,16.52
2023-11-07T00:01:14.425Z,16.33
2023-11-07T00:01:37.186Z,17.85
2023-11-07T00:01:59.964Z,16.70
2023-11-07T00:02:25.262Z,17.02
2023-11-07T00:02:50.011Z,18.77
2023-11-07T00:03:13.058Z,17.13
2023-11-07T00:03:36.040Z,17.95
2023-11-07T00:04:01.593Z,18.55
2023-11-07T00:04:24.703Z,18.95
2023-11-07T00:04:47.703Z,18.92
2023-11-07T00:05:10.673Z,15.88
2023-11-07T00:05:34.152Z,15.00
2023-11-07T00:05:57.236Z,16.67
2023-11-07T00:06:20.204Z,18.20
2023-11-07T00:06:43.137Z,19.00
2023-11-07T00:07:05.951Z,19.92
2023-11-07T00:07:28.717Z,17.48
2023-11-07T00:07:51.645Z,20.27
2023-11-07T00:08:14.463Z,17.85
2023-11-07T00:08:37.287Z,17.02
2023-11-07T00:09:00.153Z,17.33
2023-11-07T00:09:22.945Z,19.17
2023-11-07T00:09:45.866Z,18.63
2023-11-07T00:10:09.590Z,18.48
2023-11-07T00:10:33.405Z,18.50
2023-11-07T00:10:57.509Z,17.88
2023-11-07T00:11:20.427Z,15.57
2023-11-07T00:11:43.306Z,15.13
2023-11-07T00:12:06.806Z,15.65
2023-11-07T00:12:29.610Z,16.60
2023-11-07T00:12:52.729Z,16.85
2023-11-07T00:13:16.124Z,17.55
2023-11-07T00:13:38.928Z,17.00
2023-11-07T00:14:01.775Z,17.52
2023-11-07T00:14:24.550Z,17.02
2023-11-07T00:14:47.449Z,19.13
2023-11-07T00:15:11.050Z,16.50
2023-11-07T00:15:33.921Z,15.30
2023-11-07T00:15:56.725Z,13.02
2023-11-07T00:16:19.544Z,13.82
2023-11-07T00:16:42.854Z,13.50
2023-11-07T00:17:05.798Z,13.02
2023-11-07T00:17:30.462Z,13.93
2023-11-07T00:17:53.793Z,16.27
2023-11-07T00:18:16.814Z,14.93
2023-11-07T00:18:41.428Z,12.20
2023-11-07T00:19:07.637Z,12.88
2023-11-07T00:19:30.604Z,13.98
2023-11-07T00:19:53.482Z,13.65
2023-11-07T00:20:16.309Z,11.98
2023-11-07T00:20:39.107Z,12.20
2023-11-07T00:21:02.017Z,11.70
2023-11-07T00:21:25.030Z,12.95
2023-11-07T00:21:47.979Z,11.20
2023-11-07T00:22:13.654Z,12.32
2023-11-07T00:22:36.484Z,14.32
2023-11-07T00:22:59.418Z,15.00
2023-11-07T00:23:22.812Z,12.60
2023-11-07T00:23:46.139Z,10.02
2023-11-07T00:24:09.324Z,11.55
2023-11-07T00:24:34.299Z,9.50
2023-11-07T00:24:57.133Z,11.13
2023-11-07T00:25:20.000Z,13.43
2023-11-07T00:25:42.795Z,12.73
2023-11-07T00:26:06.383Z,11.23
2023-11-07T00:26:29.348Z,10.55
2023-11-07T00:26:55.176Z,9.45
2023-11-07T00:27:19.899Z,11.10
2023-11-07T00:27:42.701Z,11.02
2023-11-07T00:28:06.777Z,10.20
2023-11-07T00:28:29.693Z,12.10
2023-11-07T00:28:52.512Z,11.25
2023-11-07T00:29:16.609Z,11.23
2023-11-07T00:29:39.427Z,12.75
2023-11-07T00:30:02.255Z,11.23
2023-11-07T00:30:26.139Z,11.90
2023-11-07T00:30:49.504Z,10.05
2023-11-07T00:31:15.386Z,9.18
2023-11-07T00:31:38.237Z,10.25
2023-11-07T00:32:01.184Z,10.70
2023-11-07T00:32:24.549Z,10.52
2023-11-07T00:32:49.066Z,10.77
2023-11-07T00:33:12.202Z,10.52
2023-11-07T00:33:38.590Z,9.77
2023-11-07T00:34:01.832Z,9.95
2023-11-07T00:34:25.204Z,10.57
2023-11-07T00:34:48.220Z,9.43
2023-11-07T00:35:11.600Z,11.75
2023-11-07T00:35:34.398Z,10.52
2023-11-07T00:35:57.285Z,10.20
2023-11-07T00:36:20.231Z,10.70
2023-11-07T00:36:45.281Z,9.18
2023-11-07T00:37:08.102Z,10.27
2023-11-07T00:37:30.841Z,10.43
2023-11-07T00:37:56.031Z,9.05
2023-11-07T00:38:18.888Z,9.90
2023-11-07T00:38:41.832Z,10.85
2023-11-07T00:39:04.943Z,10.65
2023-11-07T00:39:27.864Z,10.02
2023-11-07T00:39:50.724Z,9.23
2023-11-07T00:40:14.375Z,11.23
2023-11-07T00:40:37.440Z,10.55
2023-11-07T00:41:00.367Z,10.45
2023-11-07T00:41:25.424Z,9.35
2023-11-07T00:41:48.375Z,10.15
2023-11-07T00:42:11.163Z,9.52
2023-11-07T00:42:36.130Z,9.73
2023-11-07T00:42:58.919Z,10.23
2023-11-07T00:43:24.057Z,9.77
2023-11-07T00:43:49.384Z,9.38
2023-11-07T00:44:12.206Z,9.02
2023-11-07T00:44:37.210Z,9.13
2023-11-07T00:45:00.160Z,8.02
2023-11-07T00:45:25.223Z,8.70
2023-11-07T00:45:48.297Z,9.88
2023-11-07T00:46:11.106Z,9.07
2023-11-07T00:46:34.468Z,9.55
2023-11-07T00:46:59.420Z,8.82
2023-11-07T00:47:22.368Z,8.82
2023-11-07T00:47:47.857Z,9.18
2023-11-07T00:48:12.982Z,9.85
2023-11-07T00:48:36.535Z,10.15
2023-11-07T00:48:59.825Z,10.25
2023-11-07T00:49:22.833Z,10.85
2023-11-07T00:49:46.474Z,10.80
2023-11-07T00:50:11.960Z,10.32
2023-11-07T00:50:35.851Z,8.05
2023-11-07T00:51:01.279Z,9.85
2023-11-07T00:51:24.081Z,9.80
2023-11-07T00:51:47.421Z,8.50
2023-11-07T00:52:12.637Z,8.38
2023-11-07T00:52:35.410Z,10.82
2023-11-07T00:53:00.588Z,9.07
2023-11-07T00:53:24.566Z,11.38
2023-11-07T00:53:47.464Z,11.18
2023-11-07T00:54:12.416Z,9.45
2023-11-07T00:54:35.246Z,8.43
2023-11-07T00:54:58.157Z,8.52
2023-11-07T00:55:23.150Z,9.00
2023-11-07T00:55:45.901Z,11.38
2023-11-07T00:56:09.501Z,10.40
2023-11-07T00:56:33.014Z,10.45
2023-11-07T00:56:58.370Z,9.38
2023-11-07T00:57:21.228Z,8.55
2023-11-07T00:57:44.107Z,9.43
2023-11-07T00:58:06.945Z,8.70
2023-11-07T00:58:29.717Z,8.98
2023-11-07T00:58:52.736Z,9.52
2023-11-07T00:59:15.588Z,8.90
2023-11-07T00:59:38.507Z,9.38
2023-11-07T01:00:01.501Z,9.93
2023-11-07T01:00:24.508Z,9.82
2023-11-07T01:00:47.288Z,8.55
2023-11-07T01:01:10.305Z,10.52
2023-11-07T01:01:33.208Z,8.80
2023-11-07T01:01:56.012Z,9.32
2023-11-07T01:02:18.811Z,8.05
2023-11-07T01:02:42.992Z,9.25
2023-11-07T01:03:06.301Z,8.63
2023-11-07T01:03:30.889Z,8.88
2023-11-07T01:03:54.105Z,8.77
2023-11-07T01:04:17.467Z,9.82
2023-11-07T01:04:40.422Z,8.40
2023-11-07T01:05:03.601Z,9.55
2023-11-07T01:05:26.874Z,9.63
2023-11-07T01:05:50.200Z,10.18
2023-11-07T01:06:13.434Z,8.93
2023-11-07T01:06:36.555Z,8.30
2023-11-07T01:06:59.488Z,9.75
2023-11-07T01:07:22.253Z,8.98
2023-11-07T01:07:45.375Z,8.57
2023-11-07T01:08:08.278Z,9.88
2023-11-07T01:08:34.593Z,10.60
2023-11-07T01:08:57.903Z,10.52
2023-11-07T01:09:20.866Z,9.50
2023-11-07T01:09:43.801Z,9.00
2023-11-07T01:10:08.225Z,10.13
2023-11-07T01:10:31.083Z,8.85
2023-11-07T01:10:53.976Z,8.52
2023-11-07T01:11:16.691Z,10.50
2023-11-07T01:11:41.400Z,10.13
2023-11-07T01:12:05.325Z,10.90
2023-11-07T01:12:29.356Z,9.57
2023-11-07T01:12:54.206Z,9.52
2023-11-07T01:13:17.186Z,10.55
2023-11-07T01:13:41.158Z,8.77
2023-11-07T01:14:04.880Z,10.32
2023-11-07T01:14:27.760Z,10.93
2023-11-07T01:14:50.702Z,9.02
2023-11-07T01:15:13.868Z,9.32
2023-11-07T01:15:36.659Z,8.57
2023-11-07T01:15:59.554Z,10.10
2023-11-07T01:16:22.678Z,9.18
2023-11-07T01:16:45.956Z,11.73
2023-11-07T01:17:09.049Z,9.98
2023-11-07T01:17:31.934Z,10.65
2023-11-07T01:17:55.026Z,10.75
2023-11-07T01:18:18.034Z,9.18
2023-11-07T01:18:42.498Z,9.10
2023-11-07T01:19:06.158Z,9.00
2023-11-07T01:19:29.768Z,7.80
2023-11-07T01:19:53.513Z,8.57
2023-11-07T01:20:16.321Z,10.52
2023-11-07T01:20:39.196Z,9.68
2023-11-07T01:21:02.056Z,9.20
2023-11-07T01:21:25.059Z,8.88
2023-11-07T01:21:48.765Z,9.55
2023-11-07T01:22:11.588Z,10.43
2023-11-07T01:22:34.448Z,9.40
2023-11-07T01:22:57.261Z,8.23
2023-11-07T01:23:20.408Z,9.02
2023-11-07T01:23:43.269Z,10.27
2023-11-07T01:24:07.820Z,10.27
2023-11-07T01:24:30.670Z,10.23
2023-11-07T01:24:53.420Z,10.90
2023-11-07T01:25:16.413Z,9.23
2023-11-07T01:25:39.206Z,8.80
2023-11-07T01:26:06.119Z,8.05
2023-11-07T01:26:28.980Z,8.98
2023-11-07T01:26:51.831Z,9.20
2023-11-07T01:27:17.074Z,11.10
2023-11-07T01:27:39.906Z,10.18
2023-11-07T01:28:02.787Z,9.38
2023-11-07T01:28:26.741Z,10.00
2023-11-07T01:28:50.091Z,10.82
2023-11-07T01:29:14.457Z,9.00
2023-11-07T01:29:37.310Z,9.02
2023-11-07T01:30:00.125Z,9.00
2023-11-07T01:30:23.065Z,9.18
2023-11-07T01:30:46.303Z,10.32
2023-11-07T01:31:10.023Z,7.97
2023-11-07T01:31:32.827Z,10.95
2023-11-07T01:31:56.776Z,11.07
2023-11-07T01:32:21.040Z,10.27
2023-11-07T01:32:45.001Z,10.00
2023-11-07T01:33:07.998Z,9.98
2023-11-07T01:33:31.309Z,9.38
2023-11-07T01:33:56.223Z,8.63
2023-11-07T01:34:19.296Z,8.73
2023-11-07T01:34:42.167Z,8.50
2023-11-07T01:35:06.018Z,10.43
2023-11-07T01:35:28.944Z,8.32
2023-11-07T01:35:51.820Z,8.93
2023-11-07T01:36:17.269Z,9.88
2023-11-07T01:36:40.285Z,10.35
2023-11-07T01:37:03.608Z,8.15
2023-11-07T01:37:26.518Z,7.55
2023-11-07T01:37:49.343Z,9.65
2023-11-07T01:38:12.093Z,8.60
2023-11-07T01:38:34.985Z,9.65
2023-11-07T01:38:58.054Z,9.40
2023-11-07T01:39:23.100Z,8.52
2023-11-07T01:39:45.902Z,8.77
2023-11-07T01:40:11.015Z,10.70
2023-11-07T01:40:33.836Z,9.45
2023-11-07T01:40:56.567Z,9.10
2023-11-07T01:41:19.946Z,8.38
2023-11-07T01:41:43.422Z,8.73
2023-11-07T01:42:09.662Z,10.15
2023-11-07T01:42:32.556Z,11.32
2023-11-07T01:42:56.934Z,11.07
2023-11-07T01:43:19.719Z,11.23
2023-11-07T01:43:42.513Z,12.55
2023-11-07T01:44:05.496Z,12.95
2023-11-07T01:44:30.202Z,9.15
2023-11-07T01:44:53.328Z,10.85
2023-11-07T01:45:16.394Z,9.52
2023-11-07T01:45:39.373Z,9.85
2023-11-07T01:46:04.263Z,10.48
2023-11-07T01:46:27.566Z,9.85
2023-11-07T01:46:50.632Z,10.10
2023-11-07T01:47:13.494Z,11.35
2023-11-07T01:47:36.244Z,11.50
2023-11-07T01:47:59.153Z,10.85
2023-11-07T01:48:24.430Z,9.80
2023-11-07T01:48:48.063Z,10.68
2023-11-07T01:49:12.558Z,10.60
2023-11-07T01:49:35.479Z,9.55
2023-11-07T01:49:58.669Z,8.35
2023-11-07T01:50:21.575Z,8.93
2023-11-07T01:50:44.499Z,10.13
2023-11-07T01:51:07.979Z,8.85
2023-11-07T01:51:31.110Z,8.25
2023-11-07T01:51:54.632Z,11.13
2023-11-07T01:52:19.117Z,10.80
2023-11-07T01:52:42.369Z,9.75
2023-11-07T01:53:05.251Z,9.57
2023-11-07T01:53:28.181Z,9.77
2023-11-07T01:53:51.009Z,9.55
2023-11-07T01:54:13.862Z,9.25
2023-11-07T01:54:36.872Z,10.60
2023-11-07T01:55:00.518Z,8.55
2023-11-07T01:55:23.312Z,8.35
2023-11-07T01:55:46.093Z,8.20
2023-11-07T01:56:09.671Z,8.07
2023-11-07T01:56:32.469Z,8.85
2023-11-07T01:56:55.429Z,9.18
2023-11-07T01:57:18.308Z,8.75
2023-11-07T01:57:42.401Z,9.25
2023-11-07T01:58:05.223Z,8.95
2023-11-07T01:58:28.067Z,8.52
2023-11-07T01:58:50.971Z,10.43
2023-11-07T01:59:13.794Z,9.70
2023-11-07T01:59:36.680Z,11.60
2023-11-07T01:59:59.700Z,11.13
2023-11-07T02:00:22.636Z,8.50
2023-11-07T02:00:45.460Z,7.72
2023-11-07T02:01:08.388Z,9.75
2023-11-07T02:01:33.606Z,9.68
2023-11-07T02:01:59.604Z,9.70
2023-11-07T02:02:22.546Z,8.55
2023-11-07T02:02:45.707Z,9.20
2023-11-07T02:03:08.918Z,9.77
2023-11-07T02:03:31.822Z,9.73
2023-11-07T02:03:54.910Z,9.65
2023-11-07T02:04:19.498Z,9.63
2023-11-07T02:04:42.385Z,11.27
2023-11-07T02:05:05.822Z,10.82
2023-11-07T02:05:28.668Z,9.52
2023-11-07T02:05:53.054Z,10.23
2023-11-07T02:06:16.009Z,10.65
2023-11-07T02:06:41.085Z,9.75
2023-11-07T02:07:04.169Z,10.73
2023-11-07T02:07:27.033Z,12.32
2023-11-07T02:07:49.835Z,10.70
2023-11-07T02:08:12.770Z,10.90
2023-11-07T02:08:36.177Z,11.43
2023-11-07T02:08:59.132Z,10.20
2023-11-07T02:09:24.033Z,12.27
2023-11-07T02:09:49.675Z,12.25
2023-11-07T02:10:12.570Z,11.88
2023-11-07T02:10:35.454Z,10.95
2023-11-07T02:10:58.319Z,12.05
2023-11-07T02:11:21.200Z,11.80
2023-11-07T02:11:45.109Z,12.68
2023-11-07T02:12:08.247Z,10.43
2023-11-07T02:12:30.999Z,10.65
2023-11-07T02:12:55.274Z,10.48
2023-11-07T02:13:18.014Z,11.85
2023-11-07T02:13:40.993Z,11.77
2023-11-07T02:14:03.781Z,10.25
2023-11-07T02:14:32.090Z,9.88
2023-11-07T02:14:55.119Z,11.27
2023-11-07T02:15:22.817Z,12.02
2023-11-07T02:15:45.656Z,10.27
2023-11-07T02:16:11.789Z,9.82
2023-11-07T02:16:35.136Z,12.40
2023-11-07T02:16:58.003Z,11.30
2023-11-07T02:17:20.794Z,10.93
2023-11-07T02:17:43.653Z,12.93
2023-11-07T02:18:06.626Z,12.10
2023-11-07T02:18:30.010Z,10.60
2023-11-07T02:18:53.173Z,10.80
2023-11-07T02:19:19.073Z,9.90
2023-11-07T02:19:43.447Z,10.00
2023-11-07T02:20:07.623Z,10.38
2023-11-07T02:20:32.311Z,10.82
2023-11-07T02:20:55.228Z,10.32
2023-11-07T02:21:18.066Z,10.75
2023-11-07T02:21:40.916Z,9.10
2023-11-07T02:22:04.102Z,9.02
2023-11-07T02:22:27.866Z,9.18
2023-11-07T02:22:55.582Z,9.88
2023-11-07T02:23:29.214Z,10.40
2023-11-07T02:23:52.060Z,11.05
2023-11-07T02:24:15.031Z,10.10
2023-11-07T02:24:37.953Z,9.40
2023-11-07T02:25:00.735Z,11.30
2023-11-07T02:25:23.542Z,10.38
2023-11-07T02:25:51.746Z,11.00
2023-11-07T02:26:14.590Z,10.40
2023-11-07T02:26:37.419Z,9.07
2023-11-07T02:27:00.416Z,9.88
2023-11-07T02:27:23.816Z,9.55
2023-11-07T02:27:46.560Z,10.32
2023-11-07T02:28:10.157Z,11.45
2023-11-07T02:28:33.904Z,10.35
2023-11-07T02:28:57.180Z,13.27
2023-11-07T02:29:19.987Z,11.10
2023-11-07T02:29:43.333Z,10.52
2023-11-07T02:30:12.114Z,10.13
2023-11-07T02:30:35.012Z,11.88
2023-11-07T02:30:59.158Z,10.40
2023-11-07T02:31:22.081Z,10.15
2023-11-07T02:31:47.609Z,8.85
2023-11-07T02:32:10.354Z,10.25
2023-11-07T02:32:33.285Z,10.02
2023-11-07T02:32:58.596Z,12.00
2023-11-07T02:33:22.287Z,12.02
2023-11-07T02:33:45.388Z,11.52
2023-11-07T02:34:08.477Z,10.90
2023-11-07T02:34:31.628Z,10.05
2023-11-07T02:34:54.881Z,11.13
2023-11-07T02:35:17.675Z,11.05
2023-11-07T02:35:42.048Z,10.73
2023-11-07T02:36:05.276Z,9.23
2023-11-07T02:36:28.087Z,9.90
2023-11-07T02:36:51.606Z,9.63
2023-11-07T02:37:14.456Z,10.38
2023-11-07T02:37:37.282Z,10.68
2023-11-07T02:38:00.244Z,10.73
2023-11-07T02:38:23.925Z,10.75
2023-11-07T02:38:48.647Z,12.32
2023-11-07T02:39:14.237Z,8.88
2023-11-07T02:39:37.127Z,9.35
2023-11-07T02:40:05.358Z,9.45
2023-11-07T02:40:28.161Z,9.43
2023-11-07T02:40:50.935Z,9.35
2023-11-07T02:41:15.870Z,9.20
2023-11-07T02:41:38.690Z,9.30
2023-11-07T02:42:02.516Z,9.52
2023-11-07T02:42:27.583Z,8.93
2023-11-07T02:42:50.404Z,10.52
2023-11-07T02:43:13.258Z,10.63
2023-11-07T02:43:38.201Z,8.90
2023-11-07T02:44:01.222Z,10.35
2023-11-07T02:44:24.067Z,10.50
2023-11-07T02:44:49.468Z,8.75
2023-11-07T02:45:13.640Z,9.05
2023-11-07T02:45:37.658Z,9.10
2023-11-07T02:46:02.866Z,8.73
2023-11-07T02:46:25.751Z,9.02
2023-11-07T02:46:49.926Z,9.77
2023-11-07T02:47:12.698Z,8.77
2023-11-07T02:47:39.789Z,9.02
2023-11-07T02:48:06.691Z,9.10
2023-11-07T02:48:29.814Z,9.90
2023-11-07T02:48:52.792Z,9.07
2023-11-07T02:49:16.617Z,8.70
2023-11-07T02:49:39.704Z,8.77
2023-11-07T02:50:03.343Z,9.43
2023-11-07T02:50:26.166Z,9.88
2023-11-07T02:50:48.975Z,9.10
2023-11-07T02:51:17.546Z,9.55
2023-11-07T02:51:40.372Z,9.25
2023-11-07T02:52:03.178Z,9.75
2023-11-07T02:52:26.478Z,9.75
2023-11-07T02:52:49.262Z,9.68
2023-11-07T02:53:14.232Z,8.65
2023-11-07T02:53:37.143Z,10.25
2023-11-07T02:54:04.458Z,9.30
2023-11-07T02:54:28.096Z,8.93
2023-11-07T02:54:50.956Z,9.15
2023-11-07T02:55:15.994Z,7.93
2023-11-07T02:55:39.423Z,8.38
2023-11-07T02:56:02.786Z,10.05
2023-11-07T02:56:28.603Z,10.70
2023-11-07T02:56:51.448Z,9.35
2023-11-07T02:57:14.298Z,10.13
2023-11-07T02:57:37.176Z,9.27
2023-11-07T02:57:59.923Z,9.55
2023-11-07T02:58:25.496Z,8.63
2023-11-07T02:58:48.380Z,8.35
2023-11-07T02:59:11.246Z,9.60
2023-11-07T02:59:34.100Z,9.02
2023-11-07T02:59:57.031Z,9.05
2023-11-07T03:00:21.484Z,8.48
2023-11-07T03:00:46.324Z,9.20
2023-11-07T03:01:09.146Z,8.48
2023-11-07T03:01:32.751Z,9.35
2023-11-07T03:01:55.621Z,8.50
2023-11-07T03:02:19.117Z,8.23
2023-11-07T03:02:41.981Z,9.38
2023-11-07T03:03:05.275Z,9.43
2023-11-07T03:03:29.646Z,9.98
2023-11-07T03:03:52.890Z,9.70
2023-11-07T03:04:16.095Z,11.38
2023-11-07T03:04:39.897Z,10.23
2023-11-07T03:05:05.785Z,9.95
2023-11-07T03:05:29.021Z,11.10
2023-11-07T03:05:52.009Z,10.00
2023-11-07T03:06:14.999Z,11.73
2023-11-07T03:06:38.074Z,13.07
2023-11-07T03:07:02.001Z,10.90
2023-11-07T03:07:25.083Z,11.93
2023-11-07T03:07:47.956Z,11.15
2023-11-07T03:08:12.076Z,10.90
2023-11-07T03:08:34.920Z,12.43
2023-11-07T03:08:57.826Z,10.98
2023-11-07T03:09:22.162Z,11.50
2023-11-07T03:09:45.298Z,12.60
2023-11-07T03:10:09.530Z,13.32
2023-11-07T03:10:33.218Z,12.80
2023-11-07T03:10:56.216Z,13.25
2023-11-07T03:11:19.176Z,13.38
2023-11-07T03:11:42.079Z,11.13
2023-11-07T03:12:05.546Z,12.60
2023-11-07T03:12:29.702Z,11.10
2023-11-07T03:12:52.466Z,12.18
2023-11-07T03:13:15.416Z,10.90
2023-11-07T03:13:38.284Z,13.73
2023-11-07T03:14:01.634Z,13.55
2023-11-07T03:14:24.513Z,11.75
2023-11-07T03:14:47.345Z,13.85
2023-11-07T03:15:11.032Z,13.95
2023-11-07T03:15:33.998Z,12.88
2023-11-07T03:15:57.109Z,13.00
2023-11-07T03:16:19.947Z,11.02
2023-11-07T03:16:42.703Z,11.63
2023-11-07T03:17:05.980Z,12.25
2023-11-07T03:17:28.887Z,11.82
2023-11-07T03:17:51.740Z,12.55
2023-11-07T03:18:14.724Z,13.13
2023-11-07T03:18:37.690Z,13.77
2023-11-07T03:19:00.930Z,12.90
2023-11-07T03:19:23.827Z,13.15
2023-11-07T03:19:52.968Z,14.05
2023-11-07T03:20:16.101Z,13.05
2023-11-07T03:20:40.145Z,14.48
2023-11-07T03:21:05.225Z,12.60
2023-11-07T03:21:28.189Z,10.77
2023-11-07T03:21:51.055Z,13.57
2023-11-07T03:22:14.019Z,13.82
2023-11-07T03:22:36.958Z,12.15
2023-11-07T03:22:59.932Z,12.73
2023-11-07T03:23:23.395Z,13.55
2023-11-07T03:23:46.222Z,12.07
2023-11-07T03:24:09.904Z,13.18
2023-11-07T03:24:34.255Z,12.95
2023-11-07T03:24:57.078Z,13.13
2023-11-07T03:25:21.250Z,12.02
2023-11-07T03:25:44.025Z,13.50
2023-11-07T03:26:07.262Z,13.90
2023-11-07T03:26:30.181Z,15.65
2023-11-07T03:26:53.202Z,12.82
2023-11-07T03:27:15.969Z,13.02
2023-11-07T03:27:38.804Z,11.27
2023-11-07T03:28:02.153Z,11.68
2023-11-07T03:28:24.978Z,13.80
2023-11-07T03:28:47.844Z,14.25
2023-11-07T03:29:11.916Z,12.10
2023-11-07T03:29:34.701Z,13.43
2023-11-07T03:29:57.459Z,12.10
2023-11-07T03:30:20.358Z,13.82
2023-11-07T03:30:43.262Z,13.80
2023-11-07T03:31:06.454Z,13.30
2023-11-07T03:31:29.349Z,16.00
2023-11-07T03:31:54.312Z,13.32
2023-11-07T03:32:17.214Z,14.10
2023-11-07T03:32:40.602Z,12.82
2023-11-07T03:33:03.551Z,13.05
2023-11-07T03:33:26.871Z,13.13
2023-11-07T03:33:49.884Z,12.88
2023-11-07T03:34:12.873Z,11.98
2023-11-07T03:34:35.741Z,13.93
2023-11-07T03:34:59.811Z,14.13
2023-11-07T03:35:24.470Z,17.38
2023-11-07T03:35:48.329Z,14.73
2023-11-07T03:36:11.758Z,13.05
2023-11-07T03:36:34.598Z,13.25
2023-11-07T03:36:57.470Z,13.98
2023-11-07T03:37:20.210Z,14.65
2023-11-07T03:37:43.132Z,12.85
2023-11-07T03:38:05.954Z,13.52
2023-11-07T03:38:28.725Z,13.82
2023-11-07T03:38:52.142Z,13.05
2023-11-07T03:39:15.051Z,13.27
2023-11-07T03:39:40.084Z,13.63
2023-11-07T03:40:04.738Z,14.13
2023-11-07T03:40:27.635Z,13.60
2023-11-07T03:40:50.491Z,13.68
2023-11-07T03:41:13.335Z,14.68
2023-11-07T03:41:39.812Z,14.15
2023-11-07T03:42:02.637Z,14.52
2023-11-07T03:42:25.465Z,12.45
2023-11-07T03:42:48.340Z,12.45
2023-11-07T03:43:11.434Z,13.10
2023-11-07T03:43:37.206Z,14.85
2023-11-07T03:43:59.997Z,14.15
2023-11-07T03:44:23.266Z,12.73
2023-11-07T03:44:46.069Z,14.95
2023-11-07T03:45:11.261Z,13.65
2023-11-07T03:45:34.310Z,15.07
2023-11-07T03:45:57.732Z,12.40
2023-11-07T03:46:20.554Z,14.35
2023-11-07T03:46:43.742Z,14.80
2023-11-07T03:47:07.175Z,14.93
2023-11-07T03:47:31.187Z,13.70
2023-11-07T03:47:54.154Z,14.05
2023-11-07T03:48:17.022Z,13.98
2023-11-07T03:48:40.057Z,14.75
2023-11-07T03:49:03.287Z,15.07
2023-11-07T03:49:26.467Z,12.85
2023-11-07T03:49:49.340Z,14.43
2023-11-07T03:50:12.150Z,13.38
2023-11-07T03:50:34.989Z,12.50
2023-11-07T03:50:57.901Z,13.13
2023-11-07T03:51:21.183Z,14.00
2023-11-07T03:51:44.001Z,13.25
2023-11-07T03:52:07.100Z,12.52
2023-11-07T03:52:29.883Z,11.95
2023-11-07T03:52:52.702Z,12.73
2023-11-07T03:53:15.488Z,12.35
2023-11-07T03:53:38.346Z,11.63
2023-11-07T03:54:01.244Z,12.85
2023-11-07T03:54:25.121Z,13.93
2023-11-07T03:54:49.439Z,12.85
2023-11-07T03:55:12.564Z,11.95
2023-11-07T03:55:35.513Z,11.80
2023-11-07T03:55:59.008Z,11.60
2023-11-07T03:56:21.742Z,12.65
2023-11-07T03:56:48.311Z,11.98
2023-11-07T03:57:11.246Z,12.57
2023-11-07T03:57:34.084Z,11.38
2023-11-07T03:57:56.945Z,12.43
2023-11-07T03:58:19.735Z,12.93
2023-11-07T03:58:42.599Z,11.32
2023-11-07T03:59:05.493Z,10.43
2023-11-07T03:59:28.384Z,10.52
2023-11-07T03:59:52.250Z,14.50
2023-11-07T04:00:15.719Z,11.82
2023-11-07T04:00:38.615Z,12.00
2023-11-07T04:01:01.419Z,11.93
2023-11-07T04:01:24.277Z,10.93
2023-11-07T04:01:47.092Z,11.57
2023-11-07T04:02:09.842Z,11.65
2023-11-07T04:02:32.774Z,11.85
2023-11-07T04:02:55.759Z,12.57
2023-11-07T04:03:18.771Z,11.50
2023-11-07T04:03:41.759Z,12.13
2023-11-07T04:04:05.276Z,13.95
2023-11-07T04:04:28.215Z,11.88
2023-11-07T04:04:51.141Z,12.48
2023-11-07T04:05:14.233Z,10.85
2023-11-07T04:05:37.126Z,13.02
2023-11-07T04:06:00.200Z,12.88
2023-11-07T04:06:23.392Z,13.30
2023-11-07T04:06:46.236Z,12.10
2023-11-07T04:07:09.048Z,12.00
2023-11-07T04:07:31.817Z,11.98
2023-11-07T04:07:57.021Z,9.77
2023-11-07T04:08:19.893Z,11.13
2023-11-07T04:08:43.127Z,12.18
2023-11-07T04:09:06.108Z,11.55
2023-11-07T04:09:28.979Z,10.35
2023-11-07T04:09:53.196Z,9.90
2023-11-07T04:10:16.153Z,9.75
2023-11-07T04:10:38.955Z,11.75
2023-11-07T04:11:01.768Z,11.90
2023-11-07T04:11:24.598Z,12.10
2023-11-07T04:11:47.430Z,12.23
2023-11-07T04:12:10.260Z,10.65
2023-11-07T04:12:33.916Z,10.57
2023-11-07T04:12:56.912Z,13.50
2023-11-07T04:13:20.547Z,11.15
2023-11-07T04:13:43.918Z,12.70
2023-11-07T04:14:06.955Z,12.05
2023-11-07T04:14:29.769Z,12.10
2023-11-07T04:14:54.006Z,11.82
2023-11-07T04:15:16.971Z,10.30
2023-11-07T04:15:39.749Z,10.48
2023-11-07T04:16:04.087Z,10.32
2023-11-07T04:16:27.746Z,11.30
2023-11-07T04:16:50.532Z,11.00
2023-11-07T04:17:13.356Z,11.13
2023-11-07T04:17:36.616Z,12.05
2023-11-07T04:17:59.852Z,12.20
2023-11-07T04:18:22.932Z,10.10
2023-11-07T04:18:46.025Z,12.23
2023-11-07T04:19:09.556Z,9.38
2023-11-07T04:19:32.542Z,11.02
2023-11-07T04:19:55.758Z,11.25
2023-11-07T04:20:21.065Z,9.95
2023-11-07T04:20:46.374Z,10.32
2023-11-07T04:21:09.393Z,11.45
2023-11-07T04:21:32.332Z,14.48
2023-11-07T04:21:55.129Z,11.88
2023-11-07T04:22:17.964Z,10.55
2023-11-07T04:22:40.821Z,11.18
2023-11-07T04:23:04.250Z,11.23
2023-11-07T04:23:27.211Z,11.57
2023-11-07T04:23:50.510Z,10.68
2023-11-07T04:24:14.083Z,11.48
2023-11-07T04:24:38.964Z,10.85
2023-11-07T04:25:03.249Z,11.32
2023-11-07T04:25:26.089Z,12.55
2023-11-07T04:25:51.619Z,12.02
2023-11-07T04:26:14.477Z,13.23
2023-11-07T04:26:37.315Z,11.98
2023-11-07T04:27:00.142Z,11.52
2023-11-07T04:27:23.765Z,12.68
2023-11-07T04:27:47.776Z,14.02
2023-11-07T04:28:10.831Z,11.63
2023-11-07T04:28:34.081Z,12.02
2023-11-07T04:28:57.081Z,11.73
2023-11-07T04:29:20.595Z,12.25
2023-11-07T04:29:43.460Z,10.90
2023-11-07T04:30:10.972Z,10.95
2023-11-07T04:30:33.944Z,13.55
2023-11-07T04:30:57.027Z,11.85
2023-11-07T04:31:20.036Z,11.02
2023-11-07T04:31:42.943Z,8.95
2023-11-07T04:32:06.634Z,10.10
2023-11-07T04:32:30.013Z,10.32
2023-11-07T04:32:52.850Z,13.88
2023-11-07T04:33:15.856Z,14.27
2023-11-07T04:33:40.265Z,16.13
2023-11-07T04:34:03.174Z,35.15
2023-11-07T04:34:26.167Z,81.65
2023-11-07T04:34:49.059Z,70.15
2023-11-07T04:35:13.572Z,45.00
2023-11-07T04:35:36.686Z,24.60
2023-11-07T04:35:59.514Z,12.13
2023-11-07T04:36:24.030Z,10.10
2023-11-07T04:36:46.872Z,11.80
2023-11-07T04:37:09.748Z,23.85
2023-11-07T04:37:32.783Z,40.97
2023-11-07T04:37:56.720Z,41.20
2023-11-07T04:38:20.412Z,52.65
2023-11-07T04:38:44.956Z,45.05
2023-11-07T04:39:10.768Z,52.75
2023-11-07T04:39:33.748Z,70.03
2023-11-07T04:39:56.691Z,77.68
2023-11-07T04:40:21.021Z,86.65
2023-11-07T04:40:43.954Z,93.78
2023-11-07T04:41:07.296Z,105.35
2023-11-07T04:41:30.166Z,115.55
2023-11-07T04:41:53.563Z,123.88
2023-11-07T04:42:16.396Z,122.35
2023-11-07T04:42:39.283Z,123.93
2023-11-07T04:43:02.693Z,121.85
2023-11-07T04:43:27.311Z,123.35
2023-11-07T04:43:51.302Z,116.43
2023-11-07T04:44:14.140Z,110.18
2023-11-07T04:44:37.077Z,119.35
2023-11-07T04:45:00.409Z,102.85
2023-11-07T04:45:23.374Z,80.50
2023-11-07T04:45:46.249Z,54.33
2023-11-07T04:46:09.185Z,28.05
2023-11-07T04:46:33.198Z,15.50
2023-11-07T04:46:55.982Z,14.57
2023-11-07T04:47:19.283Z,13.73
2023-11-07T04:47:42.210Z,10.32
2023-11-07T04:48:08.576Z,9.82
2023-11-07T04:48:33.758Z,8.82
2023-11-07T04:48:57.040Z,9.07
2023-11-07T04:49:22.301Z,9.32
2023-11-07T04:49:46.263Z,8.48
2023-11-07T04:50:11.930Z,10.60
2023-11-07T04:50:37.521Z,21.58
2023-11-07T04:51:01.425Z,45.72
2023-11-07T04:51:24.252Z,63.25
2023-11-07T04:51:47.825Z,62.83
2023-11-07T04:52:10.711Z,55.05
2023-11-07T04:52:36.423Z,54.85
2023-11-07T04:52:59.203Z,65.70
2023-11-07T04:53:22.090Z,75.63
2023-11-07T04:53:46.349Z,79.65
2023-11-07T04:54:09.326Z,67.78
2023-11-07T04:54:32.240Z,58.40
2023-11-07T04:54:55.170Z,41.28
2023-11-07T04:55:19.289Z,35.63
2023-11-07T04:55:45.264Z,33.80
2023-11-07T04:56:10.843Z,34.38
2023-11-07T04:56:34.017Z,28.30
2023-11-07T04:56:57.194Z,25.08
2023-11-07T04:57:20.073Z,32.78
2023-11-07T04:57:42.896Z,39.00
2023-11-07T04:58:05.694Z,31.17
2023-11-07T04:58:28.507Z,25.05
2023-11-07T04:58:57.320Z,25.83
2023-11-07T04:59:22.783Z,27.00
2023-11-07T04:59:45.598Z,27.80
2023-11-07T05:00:12.186Z,34.03
2023-11-07T05:00:35.137Z,39.65
2023-11-07T05:00:57.924Z,40.45
2023-11-07T05:01:21.608Z,44.60
2023-11-07T05:01:46.755Z,49.10
2023-11-07T05:02:10.149Z,65.93
2023-11-07T05:02:33.109Z,60.13
2023-11-07T05:02:56.675Z,49.13
2023-11-07T05:03:24.773Z,41.97
2023-11-07T05:03:50.598Z,39.85
2023-11-07T05:04:13.862Z,39.80
2023-11-07T05:04:37.086Z,42.25
2023-11-07T05:05:00.155Z,33.97
2023-11-07T05:05:23.156Z,22.80
2023-11-07T05:05:46.260Z,17.95